Latest Coastal Weather Observations for Hobart Airport

IDT60701

Issued at 11:02 am EST Monday 30 May 2016 (issued every 10 minutes, with the page automatically refreshed every 10 minutes)

About coastal observations | Map of coastal stations | Coastal observations for TAS | Marine services | Other Formats
Station Details ID: 094008 Name: HOBART AIRPORT Lat: -42.83 Lon: 147.50 Height: 4.0 m
Data from the previous 72 hours. | See also: Recent months at Hobart Airport
Date/Time
EST
Temp

°C
Wind Pressure Rain
since 9am
mm
Weather Cloud Vis
km
Sea
Height
m
Swell
Dir
 
Speed
knots
Gust
knots
hPa Trend Height
m
Period
s
Dir
30/10:30am 9.3 NW 3 4 1028.8 - 0.0 - Mostly clear 10 - - - -
30/10:00am 8.9 CALM 0 0 1028.4 - 0.0 - Mostly clear 10 - - - -
30/09:30am 8.6 CALM 0 0 1028.2 - 0.0 - Partly cloudy 10 - - - -
30/09:00am 8.3 CALM 0 0 1027.9 R 3.8 Fine Mostly cloudy 40 - - - -
30/08:30am 7.7 CALM 0 0 1027.6 - 3.8 - Mostly clear 10 - - - -
30/08:00am 7.9 SW 5 6 1027.3 - 3.8 - Mostly clear 10 - - - -
30/07:30am 8.1 SSW 7 9 1027.0 - 3.8 - Partly cloudy 10 - - - -
30/07:00am 8.1 SSW 7 8 1026.6 - 3.8 - Mostly clear 10 - - - -
30/06:30am 8.1 SSW 6 8 1026.4 - 3.8 - Partly cloudy 10 - - - -
30/06:00am 8.2 SSW 8 10 1025.9 R 3.8 Fine Mostly cloudy 40 - - - -
30/05:30am 8.2 SSW 7 9 1025.5 - 3.8 - Partly cloudy 10 - - - -
30/05:00am 8.4 S 7 10 1025.2 - 3.8 - Mostly clear 10 - - - -
30/04:30am 8.6 S 7 8 1024.9 - 3.8 - Mostly clear 10 - - - -
30/04:00am 8.9 S 6 7 1024.5 - 3.8 - Mostly clear 10 - - - -
30/03:30am 8.2 SSE 4 4 1024.3 - 3.8 - Mostly clear 10 - - - -
30/03:00am 8.4 S 3 4 1024.2 R 3.8 Fine Mostly cloudy 40 - - - -
30/02:30am 8.7 SSW 4 6 1024.1 - 3.8 - Cloudy 10 - - - -
30/02:00am 8.8 NNW 4 5 1023.7 - 3.8 - Cloudy 10 - - - -
30/01:30am 8.4 NNW 5 7 1023.4 - 3.8 - Cloudy 10 - - - -
30/01:00am 9.2 N 4 5 1022.9 - 3.8 - Mostly cloudy 10 - - - -
30/12:30am 9.5 S 5 8 1022.7 - 3.8 - Mostly cloudy 10 - - - -
30/12:00am 8.6 S 6 6 1022.7 R 3.8 Fine Mostly cloudy 40 - - - -
 
Date/Time
EST
Temp

°C
Wind Pressure Rain
since 9am
mm
Weather Cloud Vis
km
Sea
Height
m
Swell
Dir
 
Speed
knots
Gust
knots
hPa Trend Height
m
Period
s
Dir
29/11:30pm 9.3 SSW 7 8 1022.5 - 3.8 - Partly cloudy 10 - - - -
29/11:00pm 9.6 SW 7 9 1022.4 - 3.8 - Mostly cloudy 10 - - - -
29/10:30pm 9.8 SW 8 10 1022.1 - 3.8 - Mostly cloudy 10 - - - -
29/10:00pm 9.6 SW 6 9 1021.9 - 3.8 - Mostly cloudy 10 - - - -
29/09:30pm 9.2 SW 5 6 1021.8 - 3.8 - Partly cloudy 10 - - - -
29/09:00pm 9.4 SW 7 10 1021.5 R 3.8 Fine Partly cloudy 35 - - - -
29/08:30pm 9.0 SW 8 10 1021.3 - 3.8 - Mostly clear 10 - - - -
29/08:00pm 9.2 SSW 9 11 1020.9 - 3.8 - Mostly clear 10 - - - -
29/07:30pm 9.4 SW 7 9 1020.6 - 3.8 - Mostly clear 10 - - - -
29/07:00pm 9.6 SW 8 9 1020.3 - 3.8 - Mostly clear 10 - - - -
29/06:30pm 9.6 SW 8 10 1019.8 - 3.8 - Mostly clear 10 - - - -
29/06:00pm 9.6 SW 7 8 1019.4 R 3.8 Fine Mostly clear 30 - - - -
29/05:30pm 10.1 SW 7 9 1019.0 - 3.8 - Mostly clear 10 - - - -
29/05:00pm 10.1 SSW 9 11 1018.5 - 3.8 - Mostly clear 10 - - - -
29/04:30pm 10.6 SW 12 15 1018.1 - 3.8 - Mostly clear 10 - - - -
29/04:00pm 11.3 SSW 7 9 1017.7 - 3.8 - Mostly clear 10 - - - -
29/03:30pm 10.9 SSW 5 6 1017.5 - 3.8 - Mostly clear 10 - - - -
29/03:00pm 10.7 SSW 6 7 1017.1 R 3.8 Distant precip. Mostly cloudy 30 - - - -
29/02:30pm 10.9 SSW 8 11 1016.8 - 3.8 - Mostly clear 10 - - - -
29/02:00pm 11.1 SSW 13 18 1016.6 - 3.2 - Mostly clear 10 - - - -
29/01:30pm 12.0 SSW 7 10 1016.3 - 3.2 - Mostly clear 10 - - - -
29/01:00pm 11.4 SSW 7 10 1016.1 - 3.2 - Mostly clear 10 - - - -
29/12:30pm 10.7 SW 7 10 1015.9 - 3.2 - Mostly clear 10 - - - -
29/12:00pm 10.8 SW 7 9 1016.0 R 3.0 Showers Mostly cloudy 20 - - - -
29/11:30am 10.4 WSW 7 9 1016.0 - 3.0 Showers Mostly clear 10 - - - -
29/11:10am 9.9 WSW 6 8 1016.1 - 3.0 Showers Mostly clear 10 - - - -
29/11:00am 9.6 WSW 6 8 1016.1 - 2.8 - Mostly clear 7 - - - -
29/10:40am 9.2 WNW 5 6 1016.1 - 1.8 - Mostly clear 6 - - - -
29/10:30am 9.1 WNW 4 5 1016.0 - 1.4 Showers Mostly clear 8 - - - -
29/10:00am 9.2 W 5 7 1015.7 - 0.4 - Mostly clear 10 - - - -
29/09:30am 9.1 WNW 6 8 1015.2 - 0.2 Showers Mostly clear 10 - - - -
29/09:00am 9.7 SW 6 9 1014.8 R 2.2 Showers Mostly cloudy 25 - - - -
29/08:30am 9.4 SW 7 9 1014.4 - 1.4 Showers Mostly clear 10 - - - -
29/08:00am 9.3 SW 7 9 1014.0 - 1.4 - Mostly clear 10 - - - -
29/07:30am 9.3 SW 12 16 1013.6 - 0.8 Showers Mostly clear 10 - - - -
29/07:00am 9.7 SW 9 14 1013.2 - 0.2 - Partly cloudy 10 - - - -
29/06:54am 9.9 SW 10 15 1013.1 - 0.2 Rain Partly cloudy 10 - - - -
29/06:30am 9.9 WSW 9 13 1012.8 - 0.2 Rain Mostly clear 10 - - - -
29/06:00am 10.0 W 9 16 1012.3 R 0.0 Rain Mostly cloudy 25 - - - -
29/05:30am 8.4 WNW 7 9 1012.1 - 0.0 - Mostly clear 10 - - - -
29/05:00am 8.5 WNW 7 8 1011.8 - 0.0 - Mostly clear 10 - - - -
29/04:30am 8.8 W 5 6 1011.7 - 0.0 Drizzle Mostly clear 10 - - - -
29/04:00am 9.4 NW 4 6 1011.4 - 0.0 - Partly cloudy 10 - - - -
29/03:30am 9.1 NW 5 7 1011.4 - 0.0 - Partly cloudy 10 - - - -
29/03:00am 8.9 NW 7 9 1011.1 R 0.0 Fine Mostly cloudy 35 - - - -
29/02:30am 8.7 WNW 7 9 1011.0 - 0.0 - Mostly cloudy 10 - - - -
29/02:00am 9.1 WNW 7 9 1011.0 - 0.0 - Mostly clear 10 - - - -
29/01:30am 8.8 WNW 5 7 1010.8 - 0.0 - Mostly cloudy 10 - - - -
29/01:00am 8.5 NW 6 8 1010.6 - 0.0 - Partly cloudy 10 - - - -
29/12:30am 8.6 WNW 5 7 1010.6 - 0.0 Drizzle Mostly clear 10 - - - -
29/12:00am 8.6 NW 7 9 1010.5 R 0.0 Drizzle Mostly cloudy 30 - - - -
 
Date/Time
EST
Temp

°C
Wind Pressure Rain
since 9am
mm
Weather Cloud Vis
km
Sea
Height
m
Swell
Dir
 
Speed
knots
Gust
knots
hPa Trend Height
m
Period
s
Dir
28/11:30pm 8.8 NW 8 10 1010.5 - 0.0 - Mostly clear 10 - - - -
28/11:00pm 8.1 NNW 6 8 1010.4 - 0.0 - Partly cloudy 10 - - - -
28/10:30pm 7.8 WNW 5 7 1010.4 - 0.0 - Mostly cloudy 10 - - - -
28/10:00pm 7.4 NW 7 8 1010.3 - 0.0 - Mostly clear 10 - - - -
28/09:30pm 7.3 WNW 5 6 1010.3 - 0.0 - Mostly clear 10 - - - -
28/09:00pm 6.7 NW 1 3 1010.1 R 0.0 Fine Partly cloudy 35 - - - -
28/08:30pm 6.4 N 4 5 1009.7 - 0.0 - Mostly clear 10 - - - -
28/08:00pm 5.3 CALM 0 0 1009.8 - 0.0 - Mostly cloudy 10 - - - -
28/07:30pm 6.0 CALM 0 4 1009.6 - 0.0 - Mostly clear 10 - - - -
28/07:00pm 6.4 CALM 0 0 1009.4 - 0.0 - Partly cloudy 10 - - - -
28/06:30pm 5.2 N 1 4 1009.1 - 0.0 - Mostly clear 10 - - - -
28/06:00pm 6.4 CALM 0 0 1008.7 R 0.0 Fine Mostly clear 40 - - - -
28/05:30pm 6.7 CALM 0 0 1008.5 - 0.0 - Mostly clear 10 - - - -
28/05:00pm 9.1 CALM 0 0 1008.1 - 0.0 - Mostly clear 10 - - - -
28/04:30pm 9.0 CALM 0 0 1007.8 - 0.0 - Mostly clear 10 - - - -
28/04:00pm 10.2 SW 1 4 1007.5 - 0.0 - Mostly clear 10 - - - -
28/03:30pm 10.6 CALM 0 0 1007.3 - 0.0 - Partly cloudy 10 - - - -
28/03:00pm 11.3 CALM 0 2 1007.1 R 0.0 Fine Partly cloudy 40 - - - -
28/02:30pm 12.0 N 5 6 1006.9 - 0.0 - Partly cloudy 10 - - - -
28/02:00pm 12.4 NE 6 7 1006.8 - 0.0 - Mostly clear 10 - - - -
28/01:30pm 12.9 ESE 1 6 1006.8 - 0.0 - Mostly clear 10 - - - -
28/01:00pm 12.6 N 7 8 1006.9 - 0.0 - Mostly clear 10 - - - -
28/12:30pm 12.2 NNW 7 8 1007.1 - 0.0 - Mostly clear 10 - - - -
28/12:00pm 11.9 NW 8 11 1007.3 R 0.0 Fine Mostly clear 40 - - - -
28/11:30am 11.8 NW 9 12 1007.6 - 0.0 - Mostly clear 10 - - - -
28/11:00am 11.0 NW 9 13 1007.8 - 0.0 - Mostly clear 10 - - - -
28/10:30am 10.1 NNW 9 12 1007.8 - 0.0 - Mostly clear 10 - - - -
28/10:00am 9.5 NW 9 14 1007.8 - 0.0 - Mostly clear 10 - - - -
28/09:30am 8.5 NW 11 14 1007.7 - 0.0 - Mostly clear 10 - - - -
28/09:00am 7.8 NW 9 11 1007.9 F 0.0 Fine Mostly clear 40 - - - -
28/08:30am 7.1 NW 9 13 1008.0 - 0.0 - Mostly clear 10 - - - -
28/08:00am 6.4 NW 7 9 1008.1 - 0.0 - Mostly clear 10 - - - -
28/07:30am 6.5 NW 6 8 1008.0 - 0.0 - Mostly clear 10 - - - -
28/07:00am 6.3 NNW 6 9 1007.8 - 0.0 - Mostly clear 10 - - - -
28/06:30am 6.0 NW 9 13 1007.7 - 0.0 - Mostly clear 10 - - - -
28/06:00am 6.1 NW 8 12 1007.5 S 0.0 Fine Mostly clear 35 - - - -
28/05:30am 6.3 NW 10 13 1007.4 - 0.0 - Mostly clear 10 - - - -
28/05:00am 6.2 NW 8 12 1007.5 - 0.0 - Mostly clear 10 - - - -
28/04:30am 6.7 NW 9 12 1007.4 - 0.0 - Mostly clear 10 - - - -
28/04:00am 6.5 NW 9 10 1007.2 - 0.0 - Mostly clear 10 - - - -
28/03:30am 6.5 NW 9 10 1007.2 - 0.0 - - 10 - - - -
28/03:00am 6.3 NW 8 10 1007.3 R 0.0 Fine Mostly cloudy 35 - - - -
28/02:30am 6.8 NW 9 10 1007.4 - 0.0 - - 10 - - - -
28/02:00am 6.7 NW 7 8 1007.4 - 0.0 - - 10 - - - -
28/01:30am 6.8 NW 7 9 1007.4 - 0.0 - - 10 - - - -
28/01:00am 6.8 WNW 7 8 1007.4 - 0.0 - - 10 - - - -
28/12:30am 7.4 NW 8 10 1007.5 - 0.0 - - 10 - - - -
28/12:00am 7.5 NW 7 8 1007.6 R 0.0 Fine Mostly cloudy 35 - - - -
 
Date/Time
EST
Temp

°C
Wind Pressure Rain
since 9am
mm
Weather Cloud Vis
km
Sea
Height
m
Swell
Dir
 
Speed
knots
Gust
knots
hPa Trend Height
m
Period
s
Dir
27/11:30pm 7.9 NW 6 7 1007.6 - 0.0 - - 10 - - - -
27/11:00pm 8.5 NW 6 8 1007.7 - 0.0 - Mostly clear 10 - - - -
27/10:30pm 8.9 NW 7 9 1007.7 - 0.0 - Mostly clear 10 - - - -
27/10:00pm 9.0 NW 5 8 1007.9 - 0.0 - Mostly clear 10 - - - -
27/09:30pm 10.1 SSW 6 8 1007.7 - 0.0 - Mostly clear 10 - - - -
27/09:00pm 10.3 SW 8 10 1007.7 R 0.0 Fine Mostly cloudy 35 - - - -
27/08:30pm 10.3 SW 6 8 1007.6 - 0.0 - Mostly clear 10 - - - -
27/08:00pm 10.0 WSW 5 7 1007.5 - 0.0 - Mostly clear 10 - - - -
27/07:30pm 10.3 SSW 6 7 1007.3 - 0.0 - Mostly clear 10 - - - -
27/07:00pm 10.4 SSW 7 9 1007.0 - 0.0 - Mostly clear 10 - - - -
27/06:30pm 10.6 SSW 8 12 1006.8 - 0.0 - Mostly clear 10 - - - -
27/06:00pm 10.6 SSW 7 11 1006.6 R 0.0 Fine Mostly cloudy 30 - - - -
27/05:30pm 10.6 SSW 7 9 1006.3 - 0.0 - Mostly clear 10 - - - -
27/05:00pm 11.1 SSW 9 12 1006.1 - 0.0 - Mostly clear 10 - - - -
27/04:30pm 11.2 SSW 11 15 1005.9 - 0.0 - Mostly clear 10 - - - -
27/04:00pm 11.3 S 9 13 1005.6 - 0.0 - Mostly clear 10 - - - -
27/03:30pm 11.6 S 9 15 1005.3 - 0.0 - Mostly clear 10 - - - -
27/03:00pm 11.4 SSW 10 14 1005.0 R 0.0 Fine Mostly cloudy 35 - - - -
27/02:30pm 11.2 SSW 10 14 1004.7 - 0.0 - Mostly clear 10 - - - -
27/02:00pm 11.1 SSW 10 14 1004.7 - 0.0 - Mostly clear 10 - - - -
27/01:30pm 11.4 SSW 10 14 1004.8 - 0.0 - Mostly clear 10 - - - -
27/01:00pm 11.4 SSW 11 15 1004.7 - 0.0 - Mostly clear 10 - - - -
27/12:30pm 11.2 SSW 10 16 1004.7 - 0.0 - Mostly clear 10 - - - -
27/12:00pm 11.2 SW 10 15 1004.8 R 0.0 Distant precip. Mostly cloudy 25 - - - -
27/11:30am 11.1 SW 14 19 1004.8 - 0.0 - Partly cloudy 10 - - - -

Other Formats:

Comma delimited format used in spreadsheet applications
http://www.bom.gov.au/fwo/IDT60701/IDT60701.94975.axf

JavaScript Object Notation format (JSON) in row-major order
http://www.bom.gov.au/fwo/IDT60701/IDT60701.94975.json